Energy Hercules — WDD3733 — position and weather

sailwx.info

Track history (hours):
 
Tides and Currents Weather Stations Pressure Air Temp Water Temp Dewpoint Dewpoint Depression Visibility Wind Speed Wind Dir Waves Ship Positions

Energy Hercules

Owner: Seabulk Towing Services, Inc., Fort Lauderdale, FL. More information available from US FCC via Universal Licensing System and Coast Guard Vessel Documentation Center.

Last reported at 2018-Feb-21 01:00 UTC. Time now 2018-Feb-21 01:30 UTC.
Position N 30°06' W 093°17'.

Length 30 m; draft 4.6 m.

Type: Tug. MMSI: 367135430.

Date/timePositionNaut miles runAvg speedWind from/ knotsBaromVisibWave heightAir tempDewpointWater temp
2018-Feb-21 01:00N 30°06' W 093°17'0 0.0
2018-Feb-21 00:30N 30°06' W 093°17'0 0.0
2018-Feb-20 23:54N 30°06' W 093°17'0 0.0
2018-Feb-20 23:31N 30°06' W 093°17'0 0.0
2018-Feb-20 23:01N 30°06' W 093°17'0 0.0
2018-Feb-20 22:31N 30°06' W 093°17'0 0.0
2018-Feb-20 22:00N 30°06' W 093°17'0 0.0
2018-Feb-20 21:29N 30°06' W 093°17'0 0.0
2018-Feb-20 20:58N 30°06' W 093°17'0 0.0
2018-Feb-20 20:30N 30°06' W 093°17'0 0.0
2018-Feb-20 20:00N 30°06' W 093°17'0 0.0
2018-Feb-20 19:30N 30°06' W 093°17'0 0.0
2018-Feb-20 19:00N 30°06' W 093°17'0 0.0
2018-Feb-20 18:30N 30°06' W 093°17'0 0.0
2018-Feb-20 17:55N 30°06' W 093°17'0 0.0
2018-Feb-20 17:31N 30°06' W 093°17'0 0.0
2018-Feb-20 17:00N 30°06' W 093°17'0 0.0
2018-Feb-20 16:31N 30°06' W 093°17'0 0.0
2018-Feb-20 16:00N 30°06' W 093°17'2 3.9
2018-Feb-20 15:30N 30°06' W 093°19'4 7.7
2018-Feb-20 15:01N 30°09' W 093°20'3 5.9
2018-Feb-20 14:31N 30°12' W 093°17'3 6.7
2018-Feb-20 14:01N 30°09' W 093°20'2 4.1
2018-Feb-20 13:31N 30°11' W 093°19'0 0.5
2018-Feb-20 13:01N 30°11' W 093°18'2 4.4
2018-Feb-20 12:31N 30°12' W 093°17'1 2.1
2018-Feb-20 12:00N 30°13' W 093°15'0 0.0
2018-Feb-20 11:30N 30°13' W 093°15'0 0.0
2018-Feb-20 11:01N 30°13' W 093°15'0 0.0
2018-Feb-20 10:30N 30°13' W 093°15'0 0.0
2018-Feb-20 10:00N 30°13' W 093°15'0 0.0
2018-Feb-20 09:30N 30°13' W 093°15'0 0.0
2018-Feb-20 09:00N 30°13' W 093°15'0 0.0
2018-Feb-20 08:31N 30°13' W 093°15'0 0.0
2018-Feb-20 07:46N 30°13' W 093°15'0 0.0
2018-Feb-20 07:31N 30°13' W 093°15'0 0.0
2018-Feb-20 07:01N 30°13' W 093°15'0 0.0
2018-Feb-20 06:30N 30°13' W 093°15'0 0.0
2018-Feb-20 06:01N 30°13' W 093°15'0 0.0
2018-Feb-20 05:31N 30°13' W 093°15'0 0.0
2018-Feb-20 05:01N 30°13' W 093°15'0 0.0
2018-Feb-20 04:31N 30°13' W 093°15'0 0.0
2018-Feb-20 04:00N 30°13' W 093°15'0 0.0
2018-Feb-20 03:31N 30°13' W 093°15'0 0.0
2018-Feb-20 03:01N 30°13' W 093°15'0 0.5
2018-Feb-20 02:31N 30°13' W 093°16'1 2.3
2018-Feb-20 02:00N 30°14' W 093°15'0 0.1
2018-Feb-20 01:31N 30°14' W 093°15'1 1.6
2018-Feb-20 01:00N 30°13' W 093°15'1 2.5
2018-Feb-20 00:31N 30°12' W 093°16'2 4.6
2018-Feb-20 00:00N 30°11' W 093°18'2 3.9
2018-Feb-19 23:30N 30°09' W 093°20'2 4.9
2018-Feb-19 23:00N 30°07' W 093°20'3 5.8
2018-Feb-19 22:30N 30°04' W 093°20'2 3.8
2018-Feb-19 22:00N 30°02' W 093°20'4 8.3
2018-Feb-19 21:31N 30°07' W 093°20'4 8.0
2018-Feb-19 21:00N 30°10' W 093°19'4 7.7
2018-Feb-19 20:30N 30°13' W 093°15'0 0.0
2018-Feb-19 19:56N 30°13' W 093°15'0 0.0
2018-Feb-19 19:30N 30°13' W 093°15'0 0.0
2018-Feb-19 19:00N 30°13' W 093°15'0 0.0
2018-Feb-19 17:52N 30°13' W 093°15'0 0.0
2018-Feb-19 17:28N 30°13' W 093°15'0 0.0
2018-Feb-19 16:55N 30°13' W 093°15'0 0.0
2018-Feb-19 16:25N 30°13' W 093°15'0 0.0
2018-Feb-19 16:00N 30°13' W 093°15'0 0.0
2018-Feb-19 15:30N 30°13' W 093°15'0 0.0
2018-Feb-19 15:00N 30°13' W 093°15'1 1.4
2018-Feb-19 14:26N 30°12' W 093°16'4 8.4
2018-Feb-19 14:00N 30°10' W 093°19'1 1.8
2018-Feb-19 13:30N 30°11' W 093°19'3 5.1
2018-Feb-19 13:01N 30°12' W 093°17'1 2.5
2018-Feb-19 12:30N 30°13' W 093°17'0 0.0
2018-Feb-19 12:00N 30°13' W 093°17'1 2.4
2018-Feb-19 11:30N 30°13' W 093°15'0 0.0
2018-Feb-19 11:00N 30°13' W 093°15'0 0.0
2018-Feb-19 10:30N 30°13' W 093°15'0 0.0
2018-Feb-19 10:00N 30°13' W 093°15'0 0.0
2018-Feb-19 09:30N 30°13' W 093°15'0 0.0
2018-Feb-19 09:00N 30°13' W 093°15'0 0.0
2018-Feb-19 08:30N 30°13' W 093°15'0 0.0
2018-Feb-19 08:00N 30°13' W 093°15'0 0.0
2018-Feb-19 07:30N 30°13' W 093°15'0 0.0
2018-Feb-19 07:00N 30°13' W 093°15'0 0.0
2018-Feb-19 06:30N 30°13' W 093°15'0 0.0
2018-Feb-19 06:00N 30°13' W 093°15'0 0.0
2018-Feb-19 05:30N 30°13' W 093°15'0 0.0
2018-Feb-19 05:00N 30°13' W 093°15'0 0.0
2018-Feb-19 04:30N 30°13' W 093°15'0 0.0
2018-Feb-19 04:00N 30°13' W 093°15'0 0.0
2018-Feb-19 03:30N 30°13' W 093°15'0 0.0
2018-Feb-19 03:00N 30°13' W 093°15'0 0.0
2018-Feb-19 02:30N 30°13' W 093°15'0 0.0
2018-Feb-19 02:00N 30°13' W 093°15'0 0.0
2018-Feb-19 01:24N 30°13' W 093°15'0 0.0
2018-Feb-19 00:58N 30°13' W 093°15'0 0.0
2018-Feb-19 00:28N 30°13' W 093°15'0 0.0
2018-Feb-19 00:00N 30°13' W 093°15'0 0.3
2018-Feb-18 23:30N 30°13' W 093°16'1 1.7
2018-Feb-18 23:00N 30°14' W 093°15'0 0.6
2018-Feb-18 22:30N 30°13' W 093°15'2 4.8
2018-Feb-18 22:00N 30°12' W 093°17'2 4.8
2018-Feb-18 21:30N 30°10' W 093°19'2 4.5
2018-Feb-18 21:00N 30°08' W 093°20'0 0.8
2018-Feb-18 20:30N 30°08' W 093°20'0 0.7
2018-Feb-18 20:00N 30°09' W 093°20'4 8.0
2018-Feb-18 19:30N 30°12' W 093°17'2 3.8
2018-Feb-18 19:00N 30°13' W 093°15'0 0.0
2018-Feb-18 18:30N 30°13' W 093°15'0 0.0
2018-Feb-18 17:59N 30°13' W 093°15'0 0.0
2018-Feb-18 17:29N 30°13' W 093°15'0 0.0
2018-Feb-18 16:54N 30°13' W 093°15'0 0.0
2018-Feb-18 16:30N 30°13' W 093°15'0 0.0
2018-Feb-18 16:00N 30°13' W 093°15'0 0.0
2018-Feb-18 15:30N 30°13' W 093°15'0 0.0
2018-Feb-18 15:00N 30°13' W 093°15'0 0.0
2018-Feb-18 14:22N 30°13' W 093°15'0 0.0
2018-Feb-18 14:00N 30°13' W 093°15'0 0.0
2018-Feb-18 13:30N 30°13' W 093°15'0 0.0
2018-Feb-18 13:00N 30°13' W 093°15'0 0.0
2018-Feb-18 12:29N 30°13' W 093°15'0 0.0
2018-Feb-18 12:00N 30°13' W 093°15'0 0.0
2018-Feb-18 11:30N 30°13' W 093°15'0 0.0
2018-Feb-18 11:00N 30°13' W 093°15'0 0.0
2018-Feb-18 10:30N 30°13' W 093°15'0 0.0
2018-Feb-18 10:00N 30°13' W 093°15'0 0.0
2018-Feb-18 09:30N 30°13' W 093°15'0 0.0
2018-Feb-18 09:00N 30°13' W 093°15'0 0.0
2018-Feb-18 08:30N 30°13' W 093°15'0 0.0
2018-Feb-18 08:00N 30°13' W 093°15'0 0.0
2018-Feb-18 07:30N 30°13' W 093°15'0 0.0
2018-Feb-18 07:00N 30°13' W 093°15'0 0.0
2018-Feb-18 06:30N 30°13' W 093°15'0 0.0
2018-Feb-18 06:00N 30°13' W 093°15'0 0.0
2018-Feb-18 05:30N 30°13' W 093°15'0 0.0
2018-Feb-18 05:00N 30°13' W 093°15'0 0.0
2018-Feb-18 04:30N 30°13' W 093°15'0 0.0
2018-Feb-18 04:00N 30°13' W 093°15'0 0.0
2018-Feb-18 03:30N 30°13' W 093°15'0 0.0
2018-Feb-18 03:00N 30°13' W 093°15'4 7.1
2018-Feb-18 02:30N 30°11' W 093°19'2 3.2
2018-Feb-18 02:00N 30°09' W 093°20'0 0.0
2018-Feb-18 01:30N 30°09' W 093°20'1 1.1
2018-Feb-18 01:00N 30°09' W 093°20'3 5.2
2018-Feb-18 00:30N 30°06' W 093°20'3 5.9
2018-Feb-18 00:00N 30°03' W 093°20'3 6.4
2018-Feb-17 23:30N 30°07' W 093°20'4 8.4
2018-Feb-17 23:00N 30°11' W 093°19'0 0.0
2018-Feb-17 22:30N 30°11' W 093°19'0 0.0
2018-Feb-17 22:00N 30°11' W 093°19'0 0.7
2018-Feb-17 21:30N 30°11' W 093°19'2 4.4
2018-Feb-17 21:00N 30°09' W 093°20'3 6.0
2018-Feb-17 20:30N 30°06' W 093°20'0 0.8
2018-Feb-17 20:00N 30°06' W 093°20'2 4.1
2018-Feb-17 19:30N 30°06' W 093°17'0 0.0
2018-Feb-17 19:00N 30°06' W 093°17'0 0.0
2018-Feb-17 18:30N 30°06' W 093°17'0 0.0
2018-Feb-17 18:00N 30°06' W 093°17'0 0.0
2018-Feb-17 17:30N 30°06' W 093°17'0 0.0
2018-Feb-17 17:00N 30°06' W 093°17'0 0.0
2018-Feb-17 16:30N 30°06' W 093°17'0 0.0
2018-Feb-17 16:00N 30°06' W 093°17'0 0.0
2018-Feb-17 15:30N 30°06' W 093°17'0 0.0
2018-Feb-17 15:00N 30°06' W 093°17'0 0.0
2018-Feb-17 14:30N 30°06' W 093°17'0 0.0
2018-Feb-17 14:00N 30°06' W 093°17'0 0.0
2018-Feb-17 13:30N 30°06' W 093°17'0 0.0
2018-Feb-17 13:00N 30°06' W 093°17'0 0.0
2018-Feb-17 12:30N 30°06' W 093°17'0 0.0
2018-Feb-17 12:00N 30°06' W 093°17'0 0.0
2018-Feb-17 11:30N 30°06' W 093°17'0 0.0
2018-Feb-17 11:00N 30°06' W 093°17'0 0.0
2018-Feb-17 10:30N 30°06' W 093°17'0 0.0
2018-Feb-17 10:00N 30°06' W 093°17'0 0.0
2018-Feb-17 09:27N 30°06' W 093°17'0 0.0
2018-Feb-17 09:00N 30°06' W 093°17'0 0.0
2018-Feb-17 08:30N 30°06' W 093°17'0 0.0
2018-Feb-17 07:59N 30°06' W 093°17'0 0.0
2018-Feb-17 07:30N 30°06' W 093°17'0 0.0
2018-Feb-17 06:59N 30°06' W 093°17'0 0.0
2018-Feb-17 06:30N 30°06' W 093°17'0 0.0
2018-Feb-17 06:00N 30°06' W 093°17'0 0.0
2018-Feb-17 05:30N 30°06' W 093°17'0 0.0
2018-Feb-17 05:00N 30°06' W 093°17'0 0.0
2018-Feb-17 04:27N 30°06' W 093°17'0 0.0
2018-Feb-17 03:57N 30°06' W 093°17'0 0.0
2018-Feb-17 03:30N 30°06' W 093°17'0 0.0
2018-Feb-17 03:00N 30°06' W 093°17'0 0.0
2018-Feb-17 02:30N 30°06' W 093°17'0 0.0
2018-Feb-17 02:00N 30°06' W 093°17'0 0.0
2018-Feb-17 01:28N 30°06' W 093°17'0 0.0
2018-Feb-17 01:00N 30°06' W 093°17'0 0.0
2018-Feb-17 00:30N 30°06' W 093°17'0 0.0
2018-Feb-17 00:00N 30°06' W 093°17'0 0.0
2018-Feb-16 23:30N 30°06' W 093°17'0 0.0
2018-Feb-16 22:59N 30°06' W 093°17'0 0.0
2018-Feb-16 22:30N 30°06' W 093°17'0 0.0
2018-Feb-16 22:00N 30°06' W 093°17'0 0.0
2018-Feb-16 21:30N 30°06' W 093°17'0 0.0
2018-Feb-16 21:00N 30°06' W 093°17'0 0.0
2018-Feb-16 20:29N 30°06' W 093°17'0 0.0
2018-Feb-16 20:00N 30°06' W 093°17'0 0.0
2018-Feb-16 19:30N 30°06' W 093°17'0 0.0
2018-Feb-16 19:00N 30°06' W 093°17'1 2.1
2018-Feb-16 18:30N 30°06' W 093°19'3 5.9
2018-Feb-16 18:00N 30°09' W 093°20'2 4.7
2018-Feb-16 17:30N 30°11' W 093°19'1 1.8
2018-Feb-16 17:00N 30°10' W 093°19'1 1.6
2018-Feb-16 16:29N 30°09' W 093°20'1 2.6
2018-Feb-16 16:00N 30°08' W 093°20'2 4.8
2018-Feb-16 15:30N 30°06' W 093°19'1 2.8
2018-Feb-16 15:00N 30°06' W 093°17'0 0.0
2018-Feb-16 14:28N 30°06' W 093°17'0 0.0
2018-Feb-16 13:59N 30°06' W 093°17'0 0.0
2018-Feb-16 13:30N 30°06' W 093°17'0 0.0
2018-Feb-16 13:00N 30°06' W 093°17'0 0.0
2018-Feb-16 12:26N 30°06' W 093°17'0 0.0
2018-Feb-16 12:00N 30°06' W 093°17'0 0.0
2018-Feb-16 11:30N 30°06' W 093°17'0 0.0
2018-Feb-16 11:00N 30°06' W 093°17'0 0.0
2018-Feb-16 10:30N 30°06' W 093°17'0 0.0
2018-Feb-16 10:00N 30°06' W 093°17'0 0.0
2018-Feb-16 09:29N 30°06' W 093°17'0 0.0
2018-Feb-16 09:00N 30°06' W 093°17'0 0.0
2018-Feb-16 08:30N 30°06' W 093°17'0 0.0
2018-Feb-16 08:00N 30°06' W 093°17'0 0.0
2018-Feb-16 07:30N 30°06' W 093°17'0 0.0
2018-Feb-16 06:59N 30°06' W 093°17'0 0.0
2018-Feb-16 06:30N 30°06' W 093°17'0 0.0
2018-Feb-16 05:59N 30°06' W 093°17'0 0.0
2018-Feb-16 05:30N 30°06' W 093°17'0 0.0
2018-Feb-16 05:00N 30°06' W 093°17'0 0.0
2018-Feb-16 04:30N 30°06' W 093°17'0 0.0
2018-Feb-16 04:00N 30°06' W 093°17'0 0.0
2018-Feb-16 03:30N 30°06' W 093°17'0 0.0
2018-Feb-16 03:00N 30°06' W 093°17'0 0.0
2018-Feb-16 02:30N 30°06' W 093°17'0 0.0
2018-Feb-16 01:57N 30°06' W 093°17'0 0.0
2018-Feb-16 01:30N 30°06' W 093°17'0 0.0
2018-Feb-16 01:00N 30°06' W 093°17'0 0.0
2018-Feb-16 00:22N 30°06' W 093°17'0 0.0
2018-Feb-16 00:00N 30°06' W 093°17'0 0.0
2018-Feb-15 23:30N 30°06' W 093°17'0 0.8
2018-Feb-15 23:00N 30°07' W 093°18'2 4.1
2018-Feb-15 22:30N 30°08' W 093°20'4 7.6
2018-Feb-15 22:00N 30°11' W 093°18'3 5.5
2018-Feb-15 21:30N 30°13' W 093°15'0 0.0
2018-Feb-15 21:00N 30°13' W 093°15'0 0.0
2018-Feb-15 20:30N 30°13' W 093°15'0 0.0
2018-Feb-15 20:00N 30°13' W 093°15'0 0.0
2018-Feb-15 19:30N 30°13' W 093°15'0 0.0
2018-Feb-15 19:00N 30°13' W 093°15'0 0.0
2018-Feb-15 18:30N 30°13' W 093°15'0 0.0
2018-Feb-15 18:00N 30°13' W 093°15'0 0.0
2018-Feb-15 17:30N 30°13' W 093°15'0 0.0
2018-Feb-15 17:00N 30°13' W 093°15'0 0.0
2018-Feb-15 16:30N 30°13' W 093°15'0 0.0
2018-Feb-15 16:00N 30°13' W 093°15'0 0.0
2018-Feb-15 15:30N 30°13' W 093°15'0 0.0
2018-Feb-15 15:00N 30°13' W 093°15'0 0.0
2018-Feb-15 14:30N 30°13' W 093°15'0 0.0
2018-Feb-15 13:58N 30°13' W 093°15'0 0.0
2018-Feb-15 13:30N 30°13' W 093°15'0 0.0
2018-Feb-15 13:00N 30°13' W 093°15'0 0.0
2018-Feb-15 12:30N 30°13' W 093°15'0 0.0
2018-Feb-15 12:00N 30°13' W 093°15'0 0.0
2018-Feb-15 11:30N 30°13' W 093°15'0 0.0
2018-Feb-15 10:59N 30°13' W 093°15'0 0.0
2018-Feb-15 10:30N 30°13' W 093°15'0 0.0
2018-Feb-15 10:00N 30°13' W 093°15'0 0.0
2018-Feb-15 09:29N 30°13' W 093°15'0 0.0
2018-Feb-15 09:00N 30°13' W 093°15'0 0.0
2018-Feb-15 08:30N 30°13' W 093°15'0 0.0
2018-Feb-15 08:00N 30°13' W 093°15'0 0.0
2018-Feb-15 07:30N 30°13' W 093°15'0 0.0
2018-Feb-15 07:00N 30°13' W 093°15'0 0.0
2018-Feb-15 06:30N 30°13' W 093°15'0 0.0
2018-Feb-15 06:00N 30°13' W 093°15'0 0.0
2018-Feb-15 05:30N 30°13' W 093°15'0 0.0
2018-Feb-15 05:00N 30°13' W 093°15'0 0.0
2018-Feb-15 04:30N 30°13' W 093°15'0 0.0
2018-Feb-15 04:00N 30°13' W 093°15'0 0.0
2018-Feb-15 03:30N 30°13' W 093°15'0 0.0
2018-Feb-15 03:00N 30°13' W 093°15'0 0.0
2018-Feb-15 02:30N 30°13' W 093°15'0 0.0
2018-Feb-15 02:00N 30°13' W 093°15'0 0.0
2018-Feb-15 01:30N 30°13' W 093°15'0 0.0
2018-Feb-15 01:00N 30°13' W 093°15'0 0.0
2018-Feb-15 00:30N 30°13' W 093°15'0 0.0
2018-Feb-14 23:59N 30°13' W 093°15'0 0.0
2018-Feb-14 23:29N 30°13' W 093°15'0 0.0
2018-Feb-14 23:00N 30°13' W 093°15'0 0.0
2018-Feb-14 22:30N 30°13' W 093°15'0 0.0
2018-Feb-14 22:00N 30°13' W 093°15'0 0.0
2018-Feb-14 21:29N 30°13' W 093°15'1 1.4
2018-Feb-14 21:00N 30°12' W 093°16'2 3.9
2018-Feb-14 20:30N 30°11' W 093°18'0 0.6
2018-Feb-14 20:00N 30°12' W 093°18'1 1.9
2018-Feb-14 19:30N 30°11' W 093°19'0 0.0
2018-Feb-14 19:00N 30°11' W 093°19'0 0.0
2018-Feb-14 18:30N 30°11' W 093°19'3 6.5
2018-Feb-14 18:00N 30°13' W 093°15'0 0.0
2018-Feb-14 17:30N 30°13' W 093°15'0 0.0
2018-Feb-14 17:00N 30°13' W 093°15'0 0.0
2018-Feb-14 16:30N 30°13' W 093°15'0 0.0
2018-Feb-14 16:00N 30°13' W 093°15'0 0.0
2018-Feb-14 15:30N 30°13' W 093°15'0 0.0
2018-Feb-14 15:00N 30°13' W 093°15'0 0.0
2018-Feb-14 14:30N 30°13' W 093°15'0 0.0
2018-Feb-14 14:00N 30°13' W 093°15'0 0.0
2018-Feb-14 13:30N 30°13' W 093°15'0 0.0
2018-Feb-14 13:00N 30°13' W 093°15'0 0.0
2018-Feb-14 12:30N 30°13' W 093°15'0 0.0
2018-Feb-14 12:00N 30°13' W 093°15'0 0.0
2018-Feb-14 11:30N 30°13' W 093°15'0 0.0
2018-Feb-14 11:00N 30°13' W 093°15'1 2.1
2018-Feb-14 10:30N 30°12' W 093°17'4 7.0
2018-Feb-14 10:00N 30°10' W 093°19'0 0.5
2018-Feb-14 09:30N 30°10' W 093°20'3 5.5
2018-Feb-14 09:00N 30°12' W 093°18'2 3.4
2018-Feb-14 08:23N 30°13' W 093°15'0 0.0
2018-Feb-14 07:59N 30°13' W 093°15'0 0.0
2018-Feb-14 07:30N 30°13' W 093°15'0 0.0
2018-Feb-14 06:59N 30°13' W 093°15'0 0.0
2018-Feb-14 06:30N 30°13' W 093°15'0 0.0
2018-Feb-14 06:00N 30°13' W 093°15'0 0.0
2018-Feb-14 05:30N 30°13' W 093°15'0 0.0
2018-Feb-14 05:00N 30°13' W 093°15'0 0.0
2018-Feb-14 04:30N 30°13' W 093°15'0 0.0
2018-Feb-14 04:00N 30°13' W 093°15'0 0.0
2018-Feb-14 03:30N 30°13' W 093°15'0 0.0
2018-Feb-14 02:56N 30°13' W 093°15'0 0.0
2018-Feb-14 02:30N 30°13' W 093°15'0 0.0
2018-Feb-14 01:59N 30°13' W 093°15'0 0.0
2018-Feb-14 01:30N 30°13' W 093°15'0 0.0
2018-Feb-14 01:00N 30°13' W 093°15'0 0.0
2018-Feb-14 00:30N 30°13' W 093°15'0 0.0
2018-Feb-14 00:00N 30°13' W 093°15'0 0.0
2018-Feb-13 23:30N 30°13' W 093°15'0 0.0
2018-Feb-13 23:00N 30°13' W 093°15'0 0.0
2018-Feb-13 22:30N 30°13' W 093°15'0 0.0
2018-Feb-13 22:00N 30°13' W 093°15'0 0.0
2018-Feb-13 21:30N 30°13' W 093°15'0 0.0
2018-Feb-13 21:00N 30°13' W 093°15'0 0.0
2018-Feb-13 20:20N 30°13' W 093°15'0 0.0
2018-Feb-13 19:58N 30°13' W 093°15'0 0.0
2018-Feb-13 19:30N 30°13' W 093°15'0 0.0
2018-Feb-13 18:58N 30°13' W 093°15'0 0.0
2018-Feb-13 18:29N 30°13' W 093°15'0 0.0
2018-Feb-13 17:59N 30°13' W 093°15'0 0.0
2018-Feb-13 17:30N 30°13' W 093°15'0 0.0
2018-Feb-13 17:00N 30°13' W 093°15'0 0.0
2018-Feb-13 16:26N 30°13' W 093°15'0 0.0
2018-Feb-13 15:46N 30°13' W 093°15'0 0.0
2018-Feb-13 15:30N 30°13' W 093°15'0 0.0
2018-Feb-13 15:00N 30°13' W 093°15'0 0.0
2018-Feb-13 14:29N 30°13' W 093°15'0 0.0
2018-Feb-13 13:55N 30°13' W 093°15'0 0.0
2018-Feb-13 13:30N 30°13' W 093°15'0 0.0
2018-Feb-13 13:00N 30°13' W 093°15'0 0.0
2018-Feb-13 12:30N 30°13' W 093°15'0 0.0
2018-Feb-13 12:00N 30°13' W 093°15'0 0.0
2018-Feb-13 11:24N 30°13' W 093°15'0 0.0
2018-Feb-13 10:54N 30°13' W 093°15'0 0.0
2018-Feb-13 10:22N 30°13' W 093°15'0 0.0
2018-Feb-13 10:00N 30°13' W 093°15'0 0.0
2018-Feb-13 09:30N 30°13' W 093°15'0 0.0
2018-Feb-13 08:58N 30°13' W 093°15'0 0.0
2018-Feb-13 08:30N 30°13' W 093°15'0 0.0
2018-Feb-13 07:59N 30°13' W 093°15'0 0.0
2018-Feb-13 07:27N 30°13' W 093°15'0 0.0
2018-Feb-13 07:00N 30°13' W 093°15'0 0.0
2018-Feb-13 06:30N 30°13' W 093°15'0 0.0
2018-Feb-13 05:59N 30°13' W 093°15'0 0.0
2018-Feb-13 05:29N 30°13' W 093°15'0 0.0
2018-Feb-13 04:57N 30°13' W 093°15'0 0.0
2018-Feb-13 03:56N 30°13' W 093°15'0 0.0
2018-Feb-13 03:28N 30°13' W 093°15'0 0.0
2018-Feb-13 03:00N 30°13' W 093°15'4 8.1
2018-Feb-13 02:30N 30°10' W 093°19'1 2.9
2018-Feb-13 02:00N 30°09' W 093°20'0 0.8
2018-Feb-13 01:30N 30°09' W 093°20'0 0.0
2018-Feb-13 01:00N 30°09' W 093°20'0 0.7
2018-Feb-13 00:30N 30°10' W 093°20'0 0.1
2018-Feb-13 00:00N 30°09' W 093°20'1 2.2
2018-Feb-12 23:30N 30°08' W 093°20'2 4.7
2018-Feb-12 23:00N 30°06' W 093°20'3 5.5
2018-Feb-12 22:31N 30°03' W 093°20'2 4.2
2018-Feb-12 22:00N 30°05' W 093°19'2 3.8
2018-Feb-12 21:29N 30°06' W 093°17'0 0.0
2018-Feb-12 20:55N 30°06' W 093°17'0 0.0
2018-Feb-12 20:28N 30°06' W 093°17'0 0.0
2018-Feb-12 20:00N 30°06' W 093°17'0 0.0
2018-Feb-12 19:28N 30°06' W 093°17'0 0.0
2018-Feb-12 18:59N 30°06' W 093°17'0 0.0
2018-Feb-12 18:30N 30°06' W 093°17'0 0.0
2018-Feb-12 18:00N 30°06' W 093°17'0 0.0
2018-Feb-12 17:29N 30°06' W 093°17'0 0.0
2018-Feb-12 17:00N 30°06' W 093°17'0 0.0
2018-Feb-12 16:29N 30°06' W 093°17'0 0.0
2018-Feb-12 16:00N 30°06' W 093°17'0 0.0
2018-Feb-12 15:29N 30°06' W 093°17'0 0.0
2018-Feb-12 14:58N 30°06' W 093°17'0 0.0
2018-Feb-12 14:29N 30°06' W 093°17'0 0.1
2018-Feb-12 14:01N 30°07' W 093°17'2 4.6
2018-Feb-12 13:30N 30°07' W 093°20'2 4.7
2018-Feb-12 13:00N 30°10' W 093°19'1 2.1
2018-Feb-12 12:30N 30°11' W 093°19'0 0.0
2018-Feb-12 11:59N 30°11' W 093°19'0 0.0
2018-Feb-12 11:30N 30°11' W 093°19'0 0.0
2018-Feb-12 10:59N 30°11' W 093°19'0 0.1
2018-Feb-12 10:30N 30°11' W 093°19'3 4.4
2018-Feb-12 09:55N 30°12' W 093°17'1 2.1
2018-Feb-12 09:25N 30°13' W 093°15'0 0.0
2018-Feb-12 09:00N 30°13' W 093°15'0 0.0
2018-Feb-12 08:28N 30°13' W 093°15'0 0.0
2018-Feb-12 08:00N 30°13' W 093°15'0 0.0
2018-Feb-12 07:30N 30°13' W 093°15'0 0.0
2018-Feb-12 07:00N 30°13' W 093°15'0 0.0
2018-Feb-12 06:30N 30°13' W 093°15'0 0.0
2018-Feb-12 05:54N 30°13' W 093°15'0 0.0
2018-Feb-12 05:30N 30°13' W 093°15'0 0.0
2018-Feb-12 05:00N 30°13' W 093°15'0 0.0
2018-Feb-12 04:26N 30°13' W 093°15'0 0.0
2018-Feb-12 03:54N 30°13' W 093°15'0 0.0
2018-Feb-12 03:28N 30°13' W 093°15'0 0.0
2018-Feb-12 02:57N 30°13' W 093°15'0 0.0
2018-Feb-12 02:28N 30°13' W 093°15'0 0.0
2018-Feb-12 01:58N 30°13' W 093°15'0 0.0
2018-Feb-12 01:29N 30°13' W 093°15'0 0.0
2018-Feb-12 01:00N 30°13' W 093°15'0 0.0
2018-Feb-12 00:30N 30°13' W 093°15'0 0.0
2018-Feb-11 23:59N 30°13' W 093°15'2 1.2
2018-Feb-11 22:05N 30°12' W 093°18'0 3.9
2018-Feb-11 22:00N 30°11' W 093°18'0 0.2
2018-Feb-11 21:29N 30°11' W 093°18'3 4.4
2018-Feb-11 20:54N 30°13' W 093°15'0 0.0
2018-Feb-11 20:30N 30°13' W 093°15'0 0.0
2018-Feb-11 20:00N 30°13' W 093°15'0 0.0
2018-Feb-11 19:27N 30°13' W 093°15'0 0.0
2018-Feb-11 19:00N 30°13' W 093°15'0 0.0
2018-Feb-11 18:30N 30°13' W 093°15'0 0.0
2018-Feb-11 18:00N 30°13' W 093°15'0 0.0
2018-Feb-11 17:30N 30°13' W 093°15'0 0.0
2018-Feb-11 17:00N 30°13' W 093°15'0 0.0
2018-Feb-11 16:30N 30°13' W 093°15'0 0.0
2018-Feb-11 16:00N 30°13' W 093°15'0 0.0
2018-Feb-11 15:30N 30°13' W 093°15'0 0.0
2018-Feb-11 15:00N 30°13' W 093°15'0 0.0
2018-Feb-11 14:30N 30°13' W 093°15'0 0.0
2018-Feb-11 14:00N 30°13' W 093°15'0 0.0
2018-Feb-11 13:30N 30°13' W 093°15'0 0.0
2018-Feb-11 13:00N 30°13' W 093°15'0 0.0
2018-Feb-11 12:30N 30°13' W 093°15'0 0.0
2018-Feb-11 12:00N 30°13' W 093°15'0 0.0
2018-Feb-11 11:29N 30°13' W 093°15'0 0.0
2018-Feb-11 11:00N 30°13' W 093°15'0 0.0
2018-Feb-11 10:30N 30°13' W 093°15'0 0.0
2018-Feb-11 10:00N 30°13' W 093°15'0 0.0
2018-Feb-11 09:30N 30°13' W 093°15'0 0.0
2018-Feb-11 09:00N 30°13' W 093°15'0 0.0
2018-Feb-11 08:30N 30°13' W 093°15'0 0.0
2018-Feb-11 08:00N 30°13' W 093°15'0 0.0
2018-Feb-11 07:30N 30°13' W 093°15'0 0.0
2018-Feb-11 07:00N 30°13' W 093°15'0 0.0
2018-Feb-11 06:30N 30°13' W 093°15'0 0.0
2018-Feb-11 05:59N 30°13' W 093°15'0 0.0
2018-Feb-11 05:30N 30°13' W 093°15'0 0.0
2018-Feb-11 05:00N 30°13' W 093°15'0 0.0
2018-Feb-11 04:29N 30°13' W 093°15'0 0.0
2018-Feb-11 04:00N 30°13' W 093°15'0 0.0
2018-Feb-11 03:30N 30°13' W 093°15'0 0.0
2018-Feb-11 03:00N 30°13' W 093°15'0 0.0
2018-Feb-11 02:30N 30°13' W 093°15'0 0.0
2018-Feb-11 02:00N 30°13' W 093°15'0 0.0
2018-Feb-11 01:30N 30°13' W 093°15'0 0.0
2018-Feb-11 01:00N 30°13' W 093°15'  
Track history (hours):
 
Tides and Currents Weather Stations Pressure Air Temp Water Temp Dewpoint Dewpoint Depression Visibility Wind Speed Wind Dir Waves Ship Positions

Energy Hercules

Owner: Seabulk Towing Services, Inc., Fort Lauderdale, FL. More information available from US FCC via Universal Licensing System and Coast Guard Vessel Documentation Center.

Last reported at 2018-Feb-21 01:00 UTC. Time now 2018-Feb-21 01:30 UTC.
Position N 30°06' W 093°17'.

Length 30 m; draft 4.6 m.

Type: Tug. MMSI: 367135430.

Date/timePositionNaut miles runAvg speedWind from/ knotsBaromVisibWave heightAir tempDewpointWater temp
2018-Feb-21 01:00N 30°06' W 093°17'0 0.0
2018-Feb-21 00:30N 30°06' W 093°17'0 0.0
2018-Feb-20 23:54N 30°06' W 093°17'0 0.0
2018-Feb-20 23:31N 30°06' W 093°17'0 0.0
2018-Feb-20 23:01N 30°06' W 093°17'0 0.0
2018-Feb-20 22:31N 30°06' W 093°17'0 0.0
2018-Feb-20 22:00N 30°06' W 093°17'0 0.0
2018-Feb-20 21:29N 30°06' W 093°17'0 0.0
2018-Feb-20 20:58N 30°06' W 093°17'0 0.0
2018-Feb-20 20:30N 30°06' W 093°17'0 0.0
2018-Feb-20 20:00N 30°06' W 093°17'0 0.0
2018-Feb-20 19:30N 30°06' W 093°17'0 0.0
2018-Feb-20 19:00N 30°06' W 093°17'0 0.0
2018-Feb-20 18:30N 30°06' W 093°17'0 0.0
2018-Feb-20 17:55N 30°06' W 093°17'0 0.0
2018-Feb-20 17:31N 30°06' W 093°17'0 0.0
2018-Feb-20 17:00N 30°06' W 093°17'0 0.0
2018-Feb-20 16:31N 30°06' W 093°17'0 0.0
2018-Feb-20 16:00N 30°06' W 093°17'2 3.9
2018-Feb-20 15:30N 30°06' W 093°19'4 7.7
2018-Feb-20 15:01N 30°09' W 093°20'3 5.9
2018-Feb-20 14:31N 30°12' W 093°17'3 6.7
2018-Feb-20 14:01N 30°09' W 093°20'2 4.1
2018-Feb-20 13:31N 30°11' W 093°19'0 0.5
2018-Feb-20 13:01N 30°11' W 093°18'2 4.4
2018-Feb-20 12:31N 30°12' W 093°17'1 2.1
2018-Feb-20 12:00N 30°13' W 093°15'0 0.0
2018-Feb-20 11:30N 30°13' W 093°15'0 0.0
2018-Feb-20 11:01N 30°13' W 093°15'0 0.0
2018-Feb-20 10:30N 30°13' W 093°15'0 0.0
2018-Feb-20 10:00N 30°13' W 093°15'0 0.0
2018-Feb-20 09:30N 30°13' W 093°15'0 0.0
2018-Feb-20 09:00N 30°13' W 093°15'0 0.0
2018-Feb-20 08:31N 30°13' W 093°15'0 0.0
2018-Feb-20 07:46N 30°13' W 093°15'0 0.0
2018-Feb-20 07:31N 30°13' W 093°15'0 0.0
2018-Feb-20 07:01N 30°13' W 093°15'0 0.0
2018-Feb-20 06:30N 30°13' W 093°15'0 0.0
2018-Feb-20 06:01N 30°13' W 093°15'0 0.0
2018-Feb-20 05:31N 30°13' W 093°15'0 0.0
2018-Feb-20 05:01N 30°13' W 093°15'0 0.0
2018-Feb-20 04:31N 30°13' W 093°15'0 0.0
2018-Feb-20 04:00N 30°13' W 093°15'0 0.0
2018-Feb-20 03:31N 30°13' W 093°15'0 0.0
2018-Feb-20 03:01N 30°13' W 093°15'0 0.5
2018-Feb-20 02:31N 30°13' W 093°16'1 2.3
2018-Feb-20 02:00N 30°14' W 093°15'0 0.1
2018-Feb-20 01:31N 30°14' W 093°15'1 1.6
2018-Feb-20 01:00N 30°13' W 093°15'1 2.5
2018-Feb-20 00:31N 30°12' W 093°16'2 4.6
2018-Feb-20 00:00N 30°11' W 093°18'2 3.9
2018-Feb-19 23:30N 30°09' W 093°20'2 4.9
2018-Feb-19 23:00N 30°07' W 093°20'3 5.8
2018-Feb-19 22:30N 30°04' W 093°20'2 3.8
2018-Feb-19 22:00N 30°02' W 093°20'4 8.3
2018-Feb-19 21:31N 30°07' W 093°20'4 8.0
2018-Feb-19 21:00N 30°10' W 093°19'4 7.7
2018-Feb-19 20:30N 30°13' W 093°15'0 0.0
2018-Feb-19 19:56N 30°13' W 093°15'0 0.0
2018-Feb-19 19:30N 30°13' W 093°15'0 0.0
2018-Feb-19 19:00N 30°13' W 093°15'0 0.0
2018-Feb-19 17:52N 30°13' W 093°15'0 0.0
2018-Feb-19 17:28N 30°13' W 093°15'0 0.0
2018-Feb-19 16:55N 30°13' W 093°15'0 0.0
2018-Feb-19 16:25N 30°13' W 093°15'0 0.0
2018-Feb-19 16:00N 30°13' W 093°15'0 0.0
2018-Feb-19 15:30N 30°13' W 093°15'0 0.0
2018-Feb-19 15:00N 30°13' W 093°15'1 1.4
2018-Feb-19 14:26N 30°12' W 093°16'4 8.4
2018-Feb-19 14:00N 30°10' W 093°19'1 1.8
2018-Feb-19 13:30N 30°11' W 093°19'3 5.1
2018-Feb-19 13:01N 30°12' W 093°17'1 2.5
2018-Feb-19 12:30N 30°13' W 093°17'0 0.0
2018-Feb-19 12:00N 30°13' W 093°17'1 2.4
2018-Feb-19 11:30N 30°13' W 093°15'0 0.0
2018-Feb-19 11:00N 30°13' W 093°15'0 0.0
2018-Feb-19 10:30N 30°13' W 093°15'0 0.0
2018-Feb-19 10:00N 30°13' W 093°15'0 0.0
2018-Feb-19 09:30N 30°13' W 093°15'0 0.0
2018-Feb-19 09:00N 30°13' W 093°15'0 0.0
2018-Feb-19 08:30N 30°13' W 093°15'0 0.0
2018-Feb-19 08:00N 30°13' W 093°15'0 0.0
2018-Feb-19 07:30N 30°13' W 093°15'0 0.0
2018-Feb-19 07:00N 30°13' W 093°15'0 0.0
2018-Feb-19 06:30N 30°13' W 093°15'0 0.0
2018-Feb-19 06:00N 30°13' W 093°15'0 0.0
2018-Feb-19 05:30N 30°13' W 093°15'0 0.0
2018-Feb-19 05:00N 30°13' W 093°15'0 0.0
2018-Feb-19 04:30N 30°13' W 093°15'0 0.0
2018-Feb-19 04:00N 30°13' W 093°15'0 0.0
2018-Feb-19 03:30N 30°13' W 093°15'0 0.0
2018-Feb-19 03:00N 30°13' W 093°15'0 0.0
2018-Feb-19 02:30N 30°13' W 093°15'0 0.0
2018-Feb-19 02:00N 30°13' W 093°15'0 0.0
2018-Feb-19 01:24N 30°13' W 093°15'0 0.0
2018-Feb-19 00:58N 30°13' W 093°15'0 0.0
2018-Feb-19 00:28N 30°13' W 093°15'0 0.0
2018-Feb-19 00:00N 30°13' W 093°15'0 0.3
2018-Feb-18 23:30N 30°13' W 093°16'1 1.7
2018-Feb-18 23:00N 30°14' W 093°15'0 0.6
2018-Feb-18 22:30N 30°13' W 093°15'2 4.8
2018-Feb-18 22:00N 30°12' W 093°17'2 4.8
2018-Feb-18 21:30N 30°10' W 093°19'2 4.5
2018-Feb-18 21:00N 30°08' W 093°20'0 0.8
2018-Feb-18 20:30N 30°08' W 093°20'0 0.7
2018-Feb-18 20:00N 30°09' W 093°20'4 8.0
2018-Feb-18 19:30N 30°12' W 093°17'2 3.8
2018-Feb-18 19:00N 30°13' W 093°15'0 0.0
2018-Feb-18 18:30N 30°13' W 093°15'0 0.0
2018-Feb-18 17:59N 30°13' W 093°15'0 0.0
2018-Feb-18 17:29N 30°13' W 093°15'0 0.0
2018-Feb-18 16:54N 30°13' W 093°15'0 0.0
2018-Feb-18 16:30N 30°13' W 093°15'0 0.0
2018-Feb-18 16:00N 30°13' W 093°15'0 0.0
2018-Feb-18 15:30N 30°13' W 093°15'0 0.0
2018-Feb-18 15:00N 30°13' W 093°15'0 0.0
2018-Feb-18 14:22N 30°13' W 093°15'0 0.0
2018-Feb-18 14:00N 30°13' W 093°15'0 0.0
2018-Feb-18 13:30N 30°13' W 093°15'0 0.0
2018-Feb-18 13:00N 30°13' W 093°15'0 0.0
2018-Feb-18 12:29N 30°13' W 093°15'0 0.0
2018-Feb-18 12:00N 30°13' W 093°15'0 0.0
2018-Feb-18 11:30N 30°13' W 093°15'0 0.0
2018-Feb-18 11:00N 30°13' W 093°15'0 0.0
2018-Feb-18 10:30N 30°13' W 093°15'0 0.0
2018-Feb-18 10:00N 30°13' W 093°15'0 0.0
2018-Feb-18 09:30N 30°13' W 093°15'0 0.0
2018-Feb-18 09:00N 30°13' W 093°15'0 0.0
2018-Feb-18 08:30N 30°13' W 093°15'0 0.0
2018-Feb-18 08:00N 30°13' W 093°15'0 0.0
2018-Feb-18 07:30N 30°13' W 093°15'0 0.0
2018-Feb-18 07:00N 30°13' W 093°15'0 0.0
2018-Feb-18 06:30N 30°13' W 093°15'0 0.0
2018-Feb-18 06:00N 30°13' W 093°15'0 0.0
2018-Feb-18 05:30N 30°13' W 093°15'0 0.0
2018-Feb-18 05:00N 30°13' W 093°15'0 0.0
2018-Feb-18 04:30N 30°13' W 093°15'0 0.0
2018-Feb-18 04:00N 30°13' W 093°15'0 0.0
2018-Feb-18 03:30N 30°13' W 093°15'0 0.0
2018-Feb-18 03:00N 30°13' W 093°15'4 7.1
2018-Feb-18 02:30N 30°11' W 093°19'2 3.2
2018-Feb-18 02:00N 30°09' W 093°20'0 0.0
2018-Feb-18 01:30N 30°09' W 093°20'1 1.1
2018-Feb-18 01:00N 30°09' W 093°20'3 5.2
2018-Feb-18 00:30N 30°06' W 093°20'3 5.9
2018-Feb-18 00:00N 30°03' W 093°20'3 6.4
2018-Feb-17 23:30N 30°07' W 093°20'4 8.4
2018-Feb-17 23:00N 30°11' W 093°19'0 0.0
2018-Feb-17 22:30N 30°11' W 093°19'0 0.0
2018-Feb-17 22:00N 30°11' W 093°19'0 0.7
2018-Feb-17 21:30N 30°11' W 093°19'2 4.4
2018-Feb-17 21:00N 30°09' W 093°20'3 6.0
2018-Feb-17 20:30N 30°06' W 093°20'0 0.8
2018-Feb-17 20:00N 30°06' W 093°20'2 4.1
2018-Feb-17 19:30N 30°06' W 093°17'0 0.0
2018-Feb-17 19:00N 30°06' W 093°17'0 0.0
2018-Feb-17 18:30N 30°06' W 093°17'0 0.0
2018-Feb-17 18:00N 30°06' W 093°17'0 0.0
2018-Feb-17 17:30N 30°06' W 093°17'0 0.0
2018-Feb-17 17:00N 30°06' W 093°17'0 0.0
2018-Feb-17 16:30N 30°06' W 093°17'0 0.0
2018-Feb-17 16:00N 30°06' W 093°17'0 0.0
2018-Feb-17 15:30N 30°06' W 093°17'0 0.0
2018-Feb-17 15:00N 30°06' W 093°17'0 0.0
2018-Feb-17 14:30N 30°06' W 093°17'0 0.0
2018-Feb-17 14:00N 30°06' W 093°17'0 0.0
2018-Feb-17 13:30N 30°06' W 093°17'0 0.0
2018-Feb-17 13:00N 30°06' W 093°17'0 0.0
2018-Feb-17 12:30N 30°06' W 093°17'0 0.0
2018-Feb-17 12:00N 30°06' W 093°17'0 0.0
2018-Feb-17 11:30N 30°06' W 093°17'0 0.0
2018-Feb-17 11:00N 30°06' W 093°17'0 0.0
2018-Feb-17 10:30N 30°06' W 093°17'0 0.0
2018-Feb-17 10:00N 30°06' W 093°17'0 0.0
2018-Feb-17 09:27N 30°06' W 093°17'0 0.0
2018-Feb-17 09:00N 30°06' W 093°17'0 0.0
2018-Feb-17 08:30N 30°06' W 093°17'0 0.0
2018-Feb-17 07:59N 30°06' W 093°17'0 0.0
2018-Feb-17 07:30N 30°06' W 093°17'0 0.0
2018-Feb-17 06:59N 30°06' W 093°17'0 0.0
2018-Feb-17 06:30N 30°06' W 093°17'0 0.0
2018-Feb-17 06:00N 30°06' W 093°17'0 0.0
2018-Feb-17 05:30N 30°06' W 093°17'0 0.0
2018-Feb-17 05:00N 30°06' W 093°17'0 0.0
2018-Feb-17 04:27N 30°06' W 093°17'0 0.0
2018-Feb-17 03:57N 30°06' W 093°17'0 0.0
2018-Feb-17 03:30N 30°06' W 093°17'0 0.0
2018-Feb-17 03:00N 30°06' W 093°17'0 0.0
2018-Feb-17 02:30N 30°06' W 093°17'0 0.0
2018-Feb-17 02:00N 30°06' W 093°17'0 0.0
2018-Feb-17 01:28N 30°06' W 093°17'0 0.0
2018-Feb-17 01:00N 30°06' W 093°17'0 0.0
2018-Feb-17 00:30N 30°06' W 093°17'0 0.0
2018-Feb-17 00:00N 30°06' W 093°17'0 0.0
2018-Feb-16 23:30N 30°06' W 093°17'0 0.0
2018-Feb-16 22:59N 30°06' W 093°17'0 0.0
2018-Feb-16 22:30N 30°06' W 093°17'0 0.0
2018-Feb-16 22:00N 30°06' W 093°17'0 0.0
2018-Feb-16 21:30N 30°06' W 093°17'0 0.0
2018-Feb-16 21:00N 30°06' W 093°17'0 0.0
2018-Feb-16 20:29N 30°06' W 093°17'0 0.0
2018-Feb-16 20:00N 30°06' W 093°17'0 0.0
2018-Feb-16 19:30N 30°06' W 093°17'0 0.0
2018-Feb-16 19:00N 30°06' W 093°17'1 2.1
2018-Feb-16 18:30N 30°06' W 093°19'3 5.9
2018-Feb-16 18:00N 30°09' W 093°20'2 4.7
2018-Feb-16 17:30N 30°11' W 093°19'1 1.8
2018-Feb-16 17:00N 30°10' W 093°19'1 1.6
2018-Feb-16 16:29N 30°09' W 093°20'1 2.6
2018-Feb-16 16:00N 30°08' W 093°20'2 4.8
2018-Feb-16 15:30N 30°06' W 093°19'1 2.8
2018-Feb-16 15:00N 30°06' W 093°17'0 0.0
2018-Feb-16 14:28N 30°06' W 093°17'0 0.0
2018-Feb-16 13:59N 30°06' W 093°17'0 0.0
2018-Feb-16 13:30N 30°06' W 093°17'0 0.0
2018-Feb-16 13:00N 30°06' W 093°17'0 0.0
2018-Feb-16 12:26N 30°06' W 093°17'0 0.0
2018-Feb-16 12:00N 30°06' W 093°17'0 0.0
2018-Feb-16 11:30N 30°06' W 093°17'0 0.0
2018-Feb-16 11:00N 30°06' W 093°17'0 0.0
2018-Feb-16 10:30N 30°06' W 093°17'0 0.0
2018-Feb-16 10:00N 30°06' W 093°17'0 0.0
2018-Feb-16 09:29N 30°06' W 093°17'0 0.0
2018-Feb-16 09:00N 30°06' W 093°17'0 0.0
2018-Feb-16 08:30N 30°06' W 093°17'0 0.0
2018-Feb-16 08:00N 30°06' W 093°17'0 0.0
2018-Feb-16 07:30N 30°06' W 093°17'0 0.0
2018-Feb-16 06:59N 30°06' W 093°17'0 0.0
2018-Feb-16 06:30N 30°06' W 093°17'0 0.0
2018-Feb-16 05:59N 30°06' W 093°17'0 0.0
2018-Feb-16 05:30N 30°06' W 093°17'0 0.0
2018-Feb-16 05:00N 30°06' W 093°17'0 0.0
2018-Feb-16 04:30N 30°06' W 093°17'0 0.0
2018-Feb-16 04:00N 30°06' W 093°17'0 0.0
2018-Feb-16 03:30N 30°06' W 093°17'0 0.0
2018-Feb-16 03:00N 30°06' W 093°17'0 0.0
2018-Feb-16 02:30N 30°06' W 093°17'0 0.0
2018-Feb-16 01:57N 30°06' W 093°17'0 0.0
2018-Feb-16 01:30N 30°06' W 093°17'0 0.0
2018-Feb-16 01:00N 30°06' W 093°17'0 0.0
2018-Feb-16 00:22N 30°06' W 093°17'0 0.0
2018-Feb-16 00:00N 30°06' W 093°17'0 0.0
2018-Feb-15 23:30N 30°06' W 093°17'0 0.8
2018-Feb-15 23:00N 30°07' W 093°18'2 4.1
2018-Feb-15 22:30N 30°08' W 093°20'4 7.6
2018-Feb-15 22:00N 30°11' W 093°18'3 5.5
2018-Feb-15 21:30N 30°13' W 093°15'0 0.0
2018-Feb-15 21:00N 30°13' W 093°15'0 0.0
2018-Feb-15 20:30N 30°13' W 093°15'0 0.0
2018-Feb-15 20:00N 30°13' W 093°15'0 0.0
2018-Feb-15 19:30N 30°13' W 093°15'0 0.0
2018-Feb-15 19:00N 30°13' W 093°15'0 0.0
2018-Feb-15 18:30N 30°13' W 093°15'0 0.0
2018-Feb-15 18:00N 30°13' W 093°15'0 0.0
2018-Feb-15 17:30N 30°13' W 093°15'0 0.0
2018-Feb-15 17:00N 30°13' W 093°15'0 0.0
2018-Feb-15 16:30N 30°13' W 093°15'0 0.0
2018-Feb-15 16:00N 30°13' W 093°15'0 0.0
2018-Feb-15 15:30N 30°13' W 093°15'0 0.0
2018-Feb-15 15:00N 30°13' W 093°15'0 0.0
2018-Feb-15 14:30N 30°13' W 093°15'0 0.0
2018-Feb-15 13:58N 30°13' W 093°15'0 0.0
2018-Feb-15 13:30N 30°13' W 093°15'0 0.0
2018-Feb-15 13:00N 30°13' W 093°15'0 0.0
2018-Feb-15 12:30N 30°13' W 093°15'0 0.0
2018-Feb-15 12:00N 30°13' W 093°15'0 0.0
2018-Feb-15 11:30N 30°13' W 093°15'0 0.0
2018-Feb-15 10:59N 30°13' W 093°15'0 0.0
2018-Feb-15 10:30N 30°13' W 093°15'0 0.0
2018-Feb-15 10:00N 30°13' W 093°15'0 0.0
2018-Feb-15 09:29N 30°13' W 093°15'0 0.0
2018-Feb-15 09:00N 30°13' W 093°15'0 0.0
2018-Feb-15 08:30N 30°13' W 093°15'0 0.0
2018-Feb-15 08:00N 30°13' W 093°15'0 0.0
2018-Feb-15 07:30N 30°13' W 093°15'0 0.0
2018-Feb-15 07:00N 30°13' W 093°15'0 0.0
2018-Feb-15 06:30N 30°13' W 093°15'0 0.0
2018-Feb-15 06:00N 30°13' W 093°15'0 0.0
2018-Feb-15 05:30N 30°13' W 093°15'0 0.0
2018-Feb-15 05:00N 30°13' W 093°15'0 0.0
2018-Feb-15 04:30N 30°13' W 093°15'0 0.0
2018-Feb-15 04:00N 30°13' W 093°15'0 0.0
2018-Feb-15 03:30N 30°13' W 093°15'0 0.0
2018-Feb-15 03:00N 30°13' W 093°15'0 0.0
2018-Feb-15 02:30N 30°13' W 093°15'0 0.0
2018-Feb-15 02:00N 30°13' W 093°15'0 0.0
2018-Feb-15 01:30N 30°13' W 093°15'0 0.0
2018-Feb-15 01:00N 30°13' W 093°15'0 0.0
2018-Feb-15 00:30N 30°13' W 093°15'0 0.0
2018-Feb-14 23:59N 30°13' W 093°15'0 0.0
2018-Feb-14 23:29N 30°13' W 093°15'0 0.0
2018-Feb-14 23:00N 30°13' W 093°15'0 0.0
2018-Feb-14 22:30N 30°13' W 093°15'0 0.0
2018-Feb-14 22:00N 30°13' W 093°15'0 0.0
2018-Feb-14 21:29N 30°13' W 093°15'1 1.4
2018-Feb-14 21:00N 30°12' W 093°16'2 3.9
2018-Feb-14 20:30N 30°11' W 093°18'0 0.6
2018-Feb-14 20:00N 30°12' W 093°18'1 1.9
2018-Feb-14 19:30N 30°11' W 093°19'0 0.0
2018-Feb-14 19:00N 30°11' W 093°19'0 0.0
2018-Feb-14 18:30N 30°11' W 093°19'3 6.5
2018-Feb-14 18:00N 30°13' W 093°15'0 0.0
2018-Feb-14 17:30N 30°13' W 093°15'0 0.0
2018-Feb-14 17:00N 30°13' W 093°15'0 0.0
2018-Feb-14 16:30N 30°13' W 093°15'0 0.0
2018-Feb-14 16:00N 30°13' W 093°15'0 0.0
2018-Feb-14 15:30N 30°13' W 093°15'0 0.0
2018-Feb-14 15:00N 30°13' W 093°15'0 0.0
2018-Feb-14 14:30N 30°13' W 093°15'0 0.0
2018-Feb-14 14:00N 30°13' W 093°15'0 0.0
2018-Feb-14 13:30N 30°13' W 093°15'0 0.0
2018-Feb-14 13:00N 30°13' W 093°15'0 0.0
2018-Feb-14 12:30N 30°13' W 093°15'0 0.0
2018-Feb-14 12:00N 30°13' W 093°15'0 0.0
2018-Feb-14 11:30N 30°13' W 093°15'0 0.0
2018-Feb-14 11:00N 30°13' W 093°15'1 2.1
2018-Feb-14 10:30N 30°12' W 093°17'4 7.0
2018-Feb-14 10:00N 30°10' W 093°19'0 0.5
2018-Feb-14 09:30N 30°10' W 093°20'3 5.5
2018-Feb-14 09:00N 30°12' W 093°18'2 3.4
2018-Feb-14 08:23N 30°13' W 093°15'0 0.0
2018-Feb-14 07:59N 30°13' W 093°15'0 0.0
2018-Feb-14 07:30N 30°13' W 093°15'0 0.0
2018-Feb-14 06:59N 30°13' W 093°15'0 0.0
2018-Feb-14 06:30N 30°13' W 093°15'0 0.0
2018-Feb-14 06:00N 30°13' W 093°15'0 0.0
2018-Feb-14 05:30N 30°13' W 093°15'0 0.0
2018-Feb-14 05:00N 30°13' W 093°15'0 0.0
2018-Feb-14 04:30N 30°13' W 093°15'0 0.0
2018-Feb-14 04:00N 30°13' W 093°15'0 0.0
2018-Feb-14 03:30N 30°13' W 093°15'0 0.0
2018-Feb-14 02:56N 30°13' W 093°15'0 0.0
2018-Feb-14 02:30N 30°13' W 093°15'0 0.0
2018-Feb-14 01:59N 30°13' W 093°15'0 0.0
2018-Feb-14 01:30N 30°13' W 093°15'0 0.0
2018-Feb-14 01:00N 30°13' W 093°15'0 0.0
2018-Feb-14 00:30N 30°13' W 093°15'0 0.0
2018-Feb-14 00:00N 30°13' W 093°15'0 0.0
2018-Feb-13 23:30N 30°13' W 093°15'0 0.0
2018-Feb-13 23:00N 30°13' W 093°15'0 0.0
2018-Feb-13 22:30N 30°13' W 093°15'0 0.0
2018-Feb-13 22:00N 30°13' W 093°15'0 0.0
2018-Feb-13 21:30N 30°13' W 093°15'0 0.0
2018-Feb-13 21:00N 30°13' W 093°15'0 0.0
2018-Feb-13 20:20N 30°13' W 093°15'0 0.0
2018-Feb-13 19:58N 30°13' W 093°15'0 0.0
2018-Feb-13 19:30N 30°13' W 093°15'0 0.0
2018-Feb-13 18:58N 30°13' W 093°15'0 0.0
2018-Feb-13 18:29N 30°13' W 093°15'0 0.0
2018-Feb-13 17:59N 30°13' W 093°15'0 0.0
2018-Feb-13 17:30N 30°13' W 093°15'0 0.0
2018-Feb-13 17:00N 30°13' W 093°15'0 0.0
2018-Feb-13 16:26N 30°13' W 093°15'0 0.0
2018-Feb-13 15:46N 30°13' W 093°15'0 0.0
2018-Feb-13 15:30N 30°13' W 093°15'0 0.0
2018-Feb-13 15:00N 30°13' W 093°15'0 0.0
2018-Feb-13 14:29N 30°13' W 093°15'0 0.0
2018-Feb-13 13:55N 30°13' W 093°15'0 0.0
2018-Feb-13 13:30N 30°13' W 093°15'0 0.0
2018-Feb-13 13:00N 30°13' W 093°15'0 0.0
2018-Feb-13 12:30N 30°13' W 093°15'0 0.0
2018-Feb-13 12:00N 30°13' W 093°15'0 0.0
2018-Feb-13 11:24N 30°13' W 093°15'0 0.0
2018-Feb-13 10:54N 30°13' W 093°15'0 0.0
2018-Feb-13 10:22N 30°13' W 093°15'0 0.0
2018-Feb-13 10:00N 30°13' W 093°15'0 0.0
2018-Feb-13 09:30N 30°13' W 093°15'0 0.0
2018-Feb-13 08:58N 30°13' W 093°15'0 0.0
2018-Feb-13 08:30N 30°13' W 093°15'0 0.0
2018-Feb-13 07:59N 30°13' W 093°15'0 0.0
2018-Feb-13 07:27N 30°13' W 093°15'0 0.0
2018-Feb-13 07:00N 30°13' W 093°15'0 0.0
2018-Feb-13 06:30N 30°13' W 093°15'0 0.0
2018-Feb-13 05:59N 30°13' W 093°15'0 0.0
2018-Feb-13 05:29N 30°13' W 093°15'0 0.0
2018-Feb-13 04:57N 30°13' W 093°15'0 0.0
2018-Feb-13 03:56N 30°13' W 093°15'0 0.0
2018-Feb-13 03:28N 30°13' W 093°15'0 0.0
2018-Feb-13 03:00N 30°13' W 093°15'4 8.1
2018-Feb-13 02:30N 30°10' W 093°19'1 2.9
2018-Feb-13 02:00N 30°09' W 093°20'0 0.8
2018-Feb-13 01:30N 30°09' W 093°20'0 0.0
2018-Feb-13 01:00N 30°09' W 093°20'0 0.7
2018-Feb-13 00:30N 30°10' W 093°20'0 0.1
2018-Feb-13 00:00N 30°09' W 093°20'1 2.2
2018-Feb-12 23:30N 30°08' W 093°20'2 4.7
2018-Feb-12 23:00N 30°06' W 093°20'3 5.5
2018-Feb-12 22:31N 30°03' W 093°20'2 4.2
2018-Feb-12 22:00N 30°05' W 093°19'2 3.8
2018-Feb-12 21:29N 30°06' W 093°17'0 0.0
2018-Feb-12 20:55N 30°06' W 093°17'0 0.0
2018-Feb-12 20:28N 30°06' W 093°17'0 0.0
2018-Feb-12 20:00N 30°06' W 093°17'0 0.0
2018-Feb-12 19:28N 30°06' W 093°17'0 0.0
2018-Feb-12 18:59N 30°06' W 093°17'0 0.0
2018-Feb-12 18:30N 30°06' W 093°17'0 0.0
2018-Feb-12 18:00N 30°06' W 093°17'0 0.0
2018-Feb-12 17:29N 30°06' W 093°17'0 0.0
2018-Feb-12 17:00N 30°06' W 093°17'0 0.0
2018-Feb-12 16:29N 30°06' W 093°17'0 0.0
2018-Feb-12 16:00N 30°06' W 093°17'0 0.0
2018-Feb-12 15:29N 30°06' W 093°17'0 0.0
2018-Feb-12 14:58N 30°06' W 093°17'0 0.0
2018-Feb-12 14:29N 30°06' W 093°17'0 0.1
2018-Feb-12 14:01N 30°07' W 093°17'2 4.6
2018-Feb-12 13:30N 30°07' W 093°20'2 4.7
2018-Feb-12 13:00N 30°10' W 093°19'1 2.1
2018-Feb-12 12:30N 30°11' W 093°19'0 0.0
2018-Feb-12 11:59N 30°11' W 093°19'0 0.0
2018-Feb-12 11:30N 30°11' W 093°19'0 0.0
2018-Feb-12 10:59N 30°11' W 093°19'0 0.1
2018-Feb-12 10:30N 30°11' W 093°19'3 4.4
2018-Feb-12 09:55N 30°12' W 093°17'1 2.1
2018-Feb-12 09:25N 30°13' W 093°15'0 0.0
2018-Feb-12 09:00N 30°13' W 093°15'0 0.0
2018-Feb-12 08:28N 30°13' W 093°15'0 0.0
2018-Feb-12 08:00N 30°13' W 093°15'0 0.0
2018-Feb-12 07:30N 30°13' W 093°15'0 0.0
2018-Feb-12 07:00N 30°13' W 093°15'0 0.0
2018-Feb-12 06:30N 30°13' W 093°15'0 0.0
2018-Feb-12 05:54N 30°13' W 093°15'0 0.0
2018-Feb-12 05:30N 30°13' W 093°15'0 0.0
2018-Feb-12 05:00N 30°13' W 093°15'0 0.0
2018-Feb-12 04:26N 30°13' W 093°15'0 0.0
2018-Feb-12 03:54N 30°13' W 093°15'0 0.0
2018-Feb-12 03:28N 30°13' W 093°15'0 0.0
2018-Feb-12 02:57N 30°13' W 093°15'0 0.0
2018-Feb-12 02:28N 30°13' W 093°15'0 0.0
2018-Feb-12 01:58N 30°13' W 093°15'0 0.0
2018-Feb-12 01:29N 30°13' W 093°15'0 0.0
2018-Feb-12 01:00N 30°13' W 093°15'0 0.0
2018-Feb-12 00:30N 30°13' W 093°15'0 0.0
2018-Feb-11 23:59N 30°13' W 093°15'2 1.2
2018-Feb-11 22:05N 30°12' W 093°18'0 3.9
2018-Feb-11 22:00N 30°11' W 093°18'0 0.2
2018-Feb-11 21:29N 30°11' W 093°18'3 4.4
2018-Feb-11 20:54N 30°13' W 093°15'0 0.0
2018-Feb-11 20:30N 30°13' W 093°15'0 0.0
2018-Feb-11 20:00N 30°13' W 093°15'0 0.0
2018-Feb-11 19:27N 30°13' W 093°15'0 0.0
2018-Feb-11 19:00N 30°13' W 093°15'0 0.0
2018-Feb-11 18:30N 30°13' W 093°15'0 0.0
2018-Feb-11 18:00N 30°13' W 093°15'0 0.0
2018-Feb-11 17:30N 30°13' W 093°15'0 0.0
2018-Feb-11 17:00N 30°13' W 093°15'0 0.0
2018-Feb-11 16:30N 30°13' W 093°15'0 0.0
2018-Feb-11 16:00N 30°13' W 093°15'0 0.0
2018-Feb-11 15:30N 30°13' W 093°15'0 0.0
2018-Feb-11 15:00N 30°13' W 093°15'0 0.0
2018-Feb-11 14:30N 30°13' W 093°15'0 0.0
2018-Feb-11 14:00N 30°13' W 093°15'0 0.0
2018-Feb-11 13:30N 30°13' W 093°15'0 0.0
2018-Feb-11 13:00N 30°13' W 093°15'0 0.0
2018-Feb-11 12:30N 30°13' W 093°15'0 0.0
2018-Feb-11 12:00N 30°13' W 093°15'0 0.0
2018-Feb-11 11:29N 30°13' W 093°15'0 0.0
2018-Feb-11 11:00N 30°13' W 093°15'0 0.0
2018-Feb-11 10:30N 30°13' W 093°15'0 0.0
2018-Feb-11 10:00N 30°13' W 093°15'0 0.0
2018-Feb-11 09:30N 30°13' W 093°15'0 0.0
2018-Feb-11 09:00N 30°13' W 093°15'0 0.0
2018-Feb-11 08:30N 30°13' W 093°15'0 0.0
2018-Feb-11 08:00N 30°13' W 093°15'0 0.0
2018-Feb-11 07:30N 30°13' W 093°15'0 0.0
2018-Feb-11 07:00N 30°13' W 093°15'0 0.0
2018-Feb-11 06:30N 30°13' W 093°15'0 0.0
2018-Feb-11 05:59N 30°13' W 093°15'0 0.0
2018-Feb-11 05:30N 30°13' W 093°15'0 0.0
2018-Feb-11 05:00N 30°13' W 093°15'0 0.0
2018-Feb-11 04:29N 30°13' W 093°15'0 0.0
2018-Feb-11 04:00N 30°13' W 093°15'0 0.0
2018-Feb-11 03:30N 30°13' W 093°15'0 0.0
2018-Feb-11 03:00N 30°13' W 093°15'0 0.0
2018-Feb-11 02:30N 30°13' W 093°15'0 0.0
2018-Feb-11 02:00N 30°13' W 093°15'0 0.0
2018-Feb-11 01:30N 30°13' W 093°15'0 0.0
2018-Feb-11 01:00N 30°13' W 093°15'  

Dump ship's entire track history